sensor_id;sensor_type;location;lat;lon;timestamp;pressure;altitude;pressure_sealevel;temperature;humidity
76321;BME280;65132;52.088;5.402;2023-10-19T00:01:11;76307.16;;;-140.59;100.00
76321;BME280;65132;52.088;5.402;2023-10-19T00:03:40;76300.94;;;-140.59;100.00
76321;BME280;65132;52.088;5.402;2023-10-19T00:06:09;76294.72;;;-140.59;100.00
76321;BME280;65132;52.088;5.402;2023-10-19T00:08:36;76290.56;;;-140.59;100.00
76321;BME280;65132;52.088;5.402;2023-10-19T00:11:10;76290.56;;;-140.59;100.00
76321;BME280;65132;52.088;5.402;2023-10-19T00:13:40;76284.31;;;-140.59;100.00
76321;BME280;65132;52.088;5.402;2023-10-19T00:16:10;76271.84;;;-140.59;100.00
76321;BME280;65132;52.088;5.402;2023-10-19T00:18:47;76271.84;;;-140.59;100.00
76321;BME280;65132;52.088;5.402;2023-10-19T00:21:18;76267.72;;;-140.59;100.00
76321;BME280;65132;52.088;5.402;2023-10-19T00:23:46;76267.72;;;-140.59;100.00
76321;BME280;65132;52.088;5.402;2023-10-19T00:26:13;76263.56;;;-140.59;100.00
76321;BME280;65132;52.088;5.402;2023-10-19T00:28:40;76253.16;;;-140.59;100.00
76321;BME280;65132;52.088;5.402;2023-10-19T00:31:11;76253.16;;;-140.59;100.00
76321;BME280;65132;52.088;5.402;2023-10-19T00:33:40;76253.16;;;-140.59;100.00
76321;BME280;65132;52.088;5.402;2023-10-19T00:36:07;76246.94;;;-140.59;100.00
76321;BME280;65132;52.088;5.402;2023-10-19T00:38:38;76249.00;;;-140.59;100.00
76321;BME280;65132;52.088;5.402;2023-10-19T00:41:08;76242.78;;;-140.59;100.00
76321;BME280;65132;52.088;5.402;2023-10-19T00:43:36;76238.63;;;-140.59;100.00
76321;BME280;65132;52.088;5.402;2023-10-19T00:46:07;76232.41;;;-140.59;100.00
76321;BME280;65132;52.088;5.402;2023-10-19T00:48:34;76224.09;;;-140.59;100.00
76321;BME280;65132;52.088;5.402;2023-10-19T00:51:01;76219.94;;;-140.59;100.00
76321;BME280;65132;52.088;5.402;2023-10-19T00:53:32;76215.78;;;-140.59;100.00
76321;BME280;65132;52.088;5.402;2023-10-19T00:56:09;76201.25;;;-140.59;100.00
76321;BME280;65132;52.088;5.402;2023-10-19T00:58:37;76207.47;;;-140.59;100.00
76321;BME280;65132;52.088;5.402;2023-10-19T01:01:04;76192.94;;;-140.59;100.00
76321;BME280;65132;52.088;5.402;2023-10-19T01:03:31;76188.78;;;-140.59;100.00
76321;BME280;65132;52.088;5.402;2023-10-19T01:05:59;76184.63;;;-140.59;100.00
76321;BME280;65132;52.088;5.402;2023-10-19T01:08:25;76178.38;;;-140.59;100.00
76321;BME280;65132;52.088;5.402;2023-10-19T01:10:54;76163.84;;;-140.59;100.00
76321;BME280;65132;52.088;5.402;2023-10-19T01:13:23;76153.47;;;-140.59;100.00
76321;BME280;65132;52.088;5.402;2023-10-19T01:16:07;76128.53;;;-140.59;100.00
76321;BME280;65132;52.088;5.402;2023-10-19T01:18:38;76122.31;;;-140.59;100.00
76321;BME280;65132;52.088;5.402;2023-10-19T01:21:10;76116.06;;;-140.59;100.00
76321;BME280;65132;52.088;5.402;2023-10-19T01:23:37;76105.69;;;-140.59;100.00
76321;BME280;65132;52.088;5.402;2023-10-19T01:26:03;76103.63;;;-140.59;100.00
76321;BME280;65132;52.088;5.402;2023-10-19T01:28:36;76091.16;;;-140.59;100.00
76321;BME280;65132;52.088;5.402;2023-10-19T01:31:05;76089.06;;;-140.59;100.00
76321;BME280;65132;52.088;5.402;2023-10-19T01:33:34;76082.84;;;-140.59;100.00
76321;BME280;65132;52.088;5.402;2023-10-19T01:36:01;76080.78;;;-140.59;100.00
76321;BME280;65132;52.088;5.402;2023-10-19T01:38:33;76068.31;;;-140.59;100.00
76321;BME280;65132;52.088;5.402;2023-10-19T01:41:01;76068.31;;;-140.59;100.00
76321;BME280;65132;52.088;5.402;2023-10-19T01:43:28;76068.31;;;-140.59;100.00
76321;BME280;65132;52.088;5.402;2023-10-19T01:45:55;76064.16;;;-140.59;100.00
76321;BME280;65132;52.088;5.402;2023-10-19T01:48:21;76053.78;;;-140.59;100.00
76321;BME280;65132;52.088;5.402;2023-10-19T01:50:58;76043.38;;;-140.59;100.00
76321;BME280;65132;52.088;5.402;2023-10-19T01:53:25;76037.16;;;-140.59;100.00
76321;BME280;65132;52.088;5.402;2023-10-19T01:55:52;76037.16;;;-140.59;100.00
76321;BME280;65132;52.088;5.402;2023-10-19T01:58:21;76033.00;;;-140.59;100.00
76321;BME280;65132;52.088;5.402;2023-10-19T02:00:47;76026.78;;;-140.59;100.00
76321;BME280;65132;52.088;5.402;2023-10-19T02:03:16;76016.38;;;-140.59;100.00
76321;BME280;65132;52.088;5.402;2023-10-19T02:05:45;76008.06;;;-140.59;100.00
76321;BME280;65132;52.088;5.402;2023-10-19T02:08:13;75997.69;;;-140.59;100.00
76321;BME280;65132;52.088;5.402;2023-10-19T02:10:46;75993.53;;;-140.59;100.00
76321;BME280;65132;52.088;5.402;2023-10-19T02:13:15;75985.22;;;-140.59;100.00
76321;BME280;65132;52.088;5.402;2023-10-19T02:15:43;75976.91;;;-140.59;100.00
76321;BME280;65132;52.088;5.402;2023-10-19T02:18:09;75981.06;;;-140.59;100.00
76321;BME280;65132;52.088;5.402;2023-10-19T02:20:36;75979.00;;;-140.59;100.00
76321;BME280;65132;52.088;5.402;2023-10-19T02:23:11;75974.84;;;-140.59;100.00
76321;BME280;65132;52.088;5.402;2023-10-19T02:25:41;75968.63;;;-140.59;100.00
76321;BME280;65132;52.088;5.402;2023-10-19T02:28:07;75968.63;;;-140.59;100.00
76321;BME280;65132;52.088;5.402;2023-10-19T02:30:44;75968.63;;;-140.59;100.00
76321;BME280;65132;52.088;5.402;2023-10-19T02:33:10;75960.31;;;-140.59;100.00
76321;BME280;65132;52.088;5.402;2023-10-19T02:35:36;75966.53;;;-140.59;100.00
76321;BME280;65132;52.088;5.402;2023-10-19T02:38:05;75954.06;;;-140.59;100.00
76321;BME280;65132;52.088;5.402;2023-10-19T02:40:32;75945.78;;;-140.59;100.00
76321;BME280;65132;52.088;5.402;2023-10-19T02:43:01;75943.69;;;-140.59;100.00
76321;BME280;65132;52.088;5.402;2023-10-19T02:45:28;75935.38;;;-140.59;100.00
76321;BME280;65132;52.088;5.402;2023-10-19T02:47:56;75918.78;;;-140.59;100.00
76321;BME280;65132;52.088;5.402;2023-10-19T02:50:26;75912.53;;;-140.59;100.00
76321;BME280;65132;52.088;5.402;2023-10-19T02:52:55;75916.69;;;-140.59;100.00
76321;BME280;65132;52.088;5.402;2023-10-19T02:55:22;75908.38;;;-140.59;100.00
76321;BME280;65132;52.088;5.402;2023-10-19T02:57:55;75910.47;;;-140.59;100.00
76321;BME280;65132;52.088;5.402;2023-10-19T03:00:21;75902.16;;;-140.59;100.00
76321;BME280;65132;52.088;5.402;2023-10-19T03:02:49;75900.06;;;-140.59;100.00
76321;BME280;65132;52.088;5.402;2023-10-19T03:05:18;75906.31;;;-140.59;100.00
76321;BME280;65132;52.088;5.402;2023-10-19T03:07:48;75904.22;;;-140.59;100.00
76321;BME280;65132;52.088;5.402;2023-10-19T03:10:14;75895.91;;;-140.59;100.00
76321;BME280;65132;52.088;5.402;2023-10-19T03:12:41;75895.91;;;-140.59;100.00
76321;BME280;65132;52.088;5.402;2023-10-19T03:15:08;75891.78;;;-140.59;100.00
76321;BME280;65132;52.088;5.402;2023-10-19T03:17:40;75891.78;;;-140.59;100.00
76321;BME280;65132;52.088;5.402;2023-10-19T03:20:10;75893.84;;;-140.59;100.00
76321;BME280;65132;52.088;5.402;2023-10-19T03:22:37;75885.53;;;-140.59;100.00
76321;BME280;65132;52.088;5.402;2023-10-19T03:25:07;75879.31;;;-140.59;100.00
76321;BME280;65132;52.088;5.402;2023-10-19T03:27:33;75868.91;;;-140.59;100.00
76321;BME280;65132;52.088;5.402;2023-10-19T03:30:00;75864.78;;;-140.59;100.00
76321;BME280;65132;52.088;5.402;2023-10-19T03:32:39;75864.78;;;-140.59;100.00
76321;BME280;65132;52.088;5.402;2023-10-19T03:35:06;75866.84;;;-140.59;100.00
76321;BME280;65132;52.088;5.402;2023-10-19T03:37:35;75854.38;;;-140.59;100.00
76321;BME280;65132;52.088;5.402;2023-10-19T03:40:02;75852.31;;;-140.59;100.00
76321;BME280;65132;52.088;5.402;2023-10-19T03:42:28;75848.16;;;-140.59;100.00
76321;BME280;65132;52.088;5.402;2023-10-19T03:44:56;75837.78;;;-140.59;100.00
76321;BME280;65132;52.088;5.402;2023-10-19T03:47:22;75839.84;;;-140.59;100.00
76321;BME280;65132;52.088;5.402;2023-10-19T03:49:53;75837.78;;;-140.59;100.00
76321;BME280;65132;52.088;5.402;2023-10-19T03:52:20;75831.53;;;-140.59;100.00
76321;BME280;65132;52.088;5.402;2023-10-19T03:54:49;75823.22;;;-140.59;100.00
76321;BME280;65132;52.088;5.402;2023-10-19T03:57:17;75821.16;;;-140.59;100.00
76321;BME280;65132;52.088;5.402;2023-10-19T03:59:44;75817.00;;;-140.59;100.00
76321;BME280;65132;52.088;5.402;2023-10-19T04:02:11;75817.00;;;-140.59;100.00
76321;BME280;65132;52.088;5.402;2023-10-19T04:04:38;75814.94;;;-140.59;100.00
76321;BME280;65132;52.088;5.402;2023-10-19T04:07:07;75808.69;;;-140.59;100.00
76321;BME280;65132;52.088;5.402;2023-10-19T04:09:33;75800.38;;;-140.59;100.00
76321;BME280;65132;52.088;5.402;2023-10-19T04:12:04;75792.06;;;-140.59;100.00
76321;BME280;65132;52.088;5.402;2023-10-19T04:14:31;75796.22;;;-140.59;100.00
76321;BME280;65132;52.088;5.402;2023-10-19T04:16:58;75785.84;;;-140.59;100.00
76321;BME280;65132;52.088;5.402;2023-10-19T04:19:25;75787.94;;;-140.59;100.00
76321;BME280;65132;52.088;5.402;2023-10-19T04:21:56;75779.63;;;-140.59;100.00
76321;BME280;65132;52.088;5.402;2023-10-19T04:24:25;75781.69;;;-140.59;100.00
76321;BME280;65132;52.088;5.402;2023-10-19T04:27:01;75785.84;;;-140.59;100.00
76321;BME280;65132;52.088;5.402;2023-10-19T04:29:28;75785.84;;;-140.59;100.00
76321;BME280;65132;52.088;5.402;2023-10-19T04:31:56;75800.38;;;-140.59;100.00
76321;BME280;65132;52.088;5.402;2023-10-19T04:34:25;75808.69;;;-140.59;100.00
76321;BME280;65132;52.088;5.402;2023-10-19T04:36:54;75808.69;;;-140.59;100.00
76321;BME280;65132;52.088;5.402;2023-10-19T04:39:22;75823.22;;;-140.59;100.00
76321;BME280;65132;52.088;5.402;2023-10-19T04:41:48;75821.16;;;-140.59;100.00
76321;BME280;65132;52.088;5.402;2023-10-19T04:44:18;75821.16;;;-140.59;100.00
76321;BME280;65132;52.088;5.402;2023-10-19T04:46:47;75823.22;;;-140.59;100.00
76321;BME280;65132;52.088;5.402;2023-10-19T04:49:17;75827.38;;;-140.59;100.00
76321;BME280;65132;52.088;5.402;2023-10-19T04:51:44;75823.22;;;-140.59;100.00
76321;BME280;65132;52.088;5.402;2023-10-19T04:54:13;75823.22;;;-140.59;100.00
76321;BME280;65132;52.088;5.402;2023-10-19T04:56:39;75833.63;;;-140.59;100.00
76321;BME280;65132;52.088;5.402;2023-10-19T04:59:06;75823.22;;;-140.59;100.00
76321;BME280;65132;52.088;5.402;2023-10-19T05:01:34;75819.06;;;-140.59;100.00
76321;BME280;65132;52.088;5.402;2023-10-19T05:04:01;75823.22;;;-140.59;100.00
76321;BME280;65132;52.088;5.402;2023-10-19T05:06:27;75823.22;;;-140.59;100.00
76321;BME280;65132;52.088;5.402;2023-10-19T05:08:54;75827.38;;;-140.59;100.00
76321;BME280;65132;52.088;5.402;2023-10-19T05:11:20;75821.16;;;-140.59;100.00
76321;BME280;65132;52.088;5.402;2023-10-19T05:13:47;75814.94;;;-140.59;100.00
76321;BME280;65132;52.088;5.402;2023-10-19T05:16:14;75817.00;;;-140.59;100.00
76321;BME280;65132;52.088;5.402;2023-10-19T05:18:45;75814.94;;;-140.59;100.00
76321;BME280;65132;52.088;5.402;2023-10-19T05:21:11;75806.63;;;-140.59;100.00
76321;BME280;65132;52.088;5.402;2023-10-19T05:23:37;75814.94;;;-140.59;100.00
76321;BME280;65132;52.088;5.402;2023-10-19T05:26:04;75806.63;;;-140.59;100.00
76321;BME280;65132;52.088;5.402;2023-10-19T05:28:31;75810.78;;;-140.59;100.00
76321;BME280;65132;52.088;5.402;2023-10-19T05:30:59;75808.69;;;-140.59;100.00
76321;BME280;65132;52.088;5.402;2023-10-19T05:33:27;75804.53;;;-140.59;100.00
76321;BME280;65132;52.088;5.402;2023-10-19T05:35:54;75802.47;;;-140.59;100.00
76321;BME280;65132;52.088;5.402;2023-10-19T05:38:25;75804.53;;;-140.59;100.00
76321;BME280;65132;52.088;5.402;2023-10-19T05:40:57;75802.47;;;-140.59;100.00
76321;BME280;65132;52.088;5.402;2023-10-19T05:43:26;75808.69;;;-140.59;100.00
76321;BME280;65132;52.088;5.402;2023-10-19T05:45:53;75808.69;;;-140.59;100.00
76321;BME280;65132;52.088;5.402;2023-10-19T05:48:28;75802.47;;;-140.59;100.00
76321;BME280;65132;52.088;5.402;2023-10-19T05:50:55;75802.47;;;-140.59;100.00
76321;BME280;65132;52.088;5.402;2023-10-19T05:53:22;75810.78;;;-140.59;100.00
76321;BME280;65132;52.088;5.402;2023-10-19T05:55:51;75804.53;;;-140.59;100.00
76321;BME280;65132;52.088;5.402;2023-10-19T05:58:18;75804.53;;;-140.59;100.00
76321;BME280;65132;52.088;5.402;2023-10-19T06:00:44;75800.38;;;-140.59;100.00
76321;BME280;65132;52.088;5.402;2023-10-19T06:03:10;75806.63;;;-140.59;100.00
76321;BME280;65132;52.088;5.402;2023-10-19T06:05:38;75800.38;;;-140.59;100.00
76321;BME280;65132;52.088;5.402;2023-10-19T06:08:05;75800.38;;;-140.59;100.00
76321;BME280;65132;52.088;5.402;2023-10-19T06:10:31;75810.78;;;-140.59;100.00
76321;BME280;65132;52.088;5.402;2023-10-19T06:12:58;75802.47;;;-140.59;100.00
76321;BME280;65132;52.088;5.402;2023-10-19T06:15:26;75796.22;;;-140.59;100.00
76321;BME280;65132;52.088;5.402;2023-10-19T06:17:55;75802.47;;;-140.59;100.00
76321;BME280;65132;52.088;5.402;2023-10-19T06:20:24;75802.47;;;-140.59;100.00
76321;BME280;65132;52.088;5.402;2023-10-19T06:22:52;75806.63;;;-140.59;100.00
76321;BME280;65132;52.088;5.402;2023-10-19T06:25:22;75808.69;;;-140.59;100.00
76321;BME280;65132;52.088;5.402;2023-10-19T06:27:50;75808.69;;;-140.59;100.00
76321;BME280;65132;52.088;5.402;2023-10-19T06:30:18;75806.63;;;-140.59;100.00
76321;BME280;65132;52.088;5.402;2023-10-19T06:32:49;75800.38;;;-140.59;100.00
76321;BME280;65132;52.088;5.402;2023-10-19T06:35:18;75808.69;;;-140.59;100.00
76321;BME280;65132;52.088;5.402;2023-10-19T06:37:45;75812.84;;;-140.59;100.00
76321;BME280;65132;52.088;5.402;2023-10-19T06:40:13;75817.00;;;-140.59;100.00
76321;BME280;65132;52.088;5.402;2023-10-19T06:42:47;75812.84;;;-140.59;100.00
76321;BME280;65132;52.088;5.402;2023-10-19T06:45:16;75817.00;;;-140.59;100.00
76321;BME280;65132;52.088;5.402;2023-10-19T06:47:52;75814.94;;;-140.59;100.00
76321;BME280;65132;52.088;5.402;2023-10-19T06:50:20;75819.06;;;-140.59;100.00
76321;BME280;65132;52.088;5.402;2023-10-19T06:52:49;75827.38;;;-140.59;100.00
76321;BME280;65132;52.088;5.402;2023-10-19T06:55:19;75825.31;;;-140.59;100.00
76321;BME280;65132;52.088;5.402;2023-10-19T06:57:48;75825.31;;;-140.59;100.00
76321;BME280;65132;52.088;5.402;2023-10-19T07:00:21;75835.69;;;-140.59;100.00
76321;BME280;65132;52.088;5.402;2023-10-19T07:02:50;75825.31;;;-140.59;100.00
76321;BME280;65132;52.088;5.402;2023-10-19T07:05:19;75821.16;;;-140.59;100.00
76321;BME280;65132;52.088;5.402;2023-10-19T07:07:46;75825.31;;;-140.59;100.00
76321;BME280;65132;52.088;5.402;2023-10-19T07:10:13;75825.31;;;-140.59;100.00
76321;BME280;65132;52.088;5.402;2023-10-19T07:12:43;75835.69;;;-140.59;100.00
76321;BME280;65132;52.088;5.402;2023-10-19T07:15:10;75825.31;;;-140.59;100.00
76321;BME280;65132;52.088;5.402;2023-10-19T07:17:40;75819.06;;;-140.59;100.00
76321;BME280;65132;52.088;5.402;2023-10-19T07:20:11;75823.22;;;-140.59;100.00
76321;BME280;65132;52.088;5.402;2023-10-19T07:22:37;75821.16;;;-140.59;100.00
76321;BME280;65132;52.088;5.402;2023-10-19T07:25:07;75819.06;;;-140.59;100.00
76321;BME280;65132;52.088;5.402;2023-10-19T07:27:37;75823.22;;;-140.59;100.00
76321;BME280;65132;52.088;5.402;2023-10-19T07:30:04;75817.00;;;-140.59;100.00
76321;BME280;65132;52.088;5.402;2023-10-19T07:32:33;75819.06;;;-140.59;100.00
76321;BME280;65132;52.088;5.402;2023-10-19T07:35:02;75808.69;;;-140.59;100.00
76321;BME280;65132;52.088;5.402;2023-10-19T07:37:29;75808.69;;;-140.59;100.00
76321;BME280;65132;52.088;5.402;2023-10-19T07:39:56;75800.38;;;-140.59;100.00
76321;BME280;65132;52.088;5.402;2023-10-19T07:42:24;75798.31;;;-140.59;100.00
76321;BME280;65132;52.088;5.402;2023-10-19T07:44:52;75796.22;;;-140.59;100.00
76321;BME280;65132;52.088;5.402;2023-10-19T07:47:18;75794.16;;;-140.59;100.00
76321;BME280;65132;52.088;5.402;2023-10-19T07:49:45;75783.78;;;-140.59;100.00
76321;BME280;65132;52.088;5.402;2023-10-19T07:52:19;75785.84;;;-140.59;100.00
76321;BME280;65132;52.088;5.402;2023-10-19T07:54:46;75779.63;;;-140.59;100.00
76321;BME280;65132;52.088;5.402;2023-10-19T07:57:13;75779.63;;;-140.59;100.00
76321;BME280;65132;52.088;5.402;2023-10-19T07:59:44;75779.63;;;-140.59;100.00
76321;BME280;65132;52.088;5.402;2023-10-19T08:02:11;75781.69;;;-140.59;100.00
76321;BME280;65132;52.088;5.402;2023-10-19T08:04:38;75775.47;;;-140.59;100.00
76321;BME280;65132;52.088;5.402;2023-10-19T08:07:10;75773.38;;;-140.59;100.00
76321;BME280;65132;52.088;5.402;2023-10-19T08:09:36;75767.16;;;-140.59;100.00
76321;BME280;65132;52.088;5.402;2023-10-19T08:12:03;75758.84;;;-140.59;100.00
76321;BME280;65132;52.088;5.402;2023-10-19T08:14:30;75758.84;;;-140.59;100.00
76321;BME280;65132;52.088;5.402;2023-10-19T08:16:57;75760.94;;;-140.59;100.00
76321;BME280;65132;52.088;5.402;2023-10-19T08:19:24;75752.63;;;-140.59;100.00
76321;BME280;65132;52.088;5.402;2023-10-19T08:21:50;75744.31;;;-140.59;100.00
76321;BME280;65132;52.088;5.402;2023-10-19T08:24:16;75752.63;;;-140.59;100.00
76321;BME280;65132;52.088;5.402;2023-10-19T08:26:46;75742.22;;;-140.59;100.00
76321;BME280;65132;52.088;5.402;2023-10-19T08:29:18;75738.09;;;-140.59;100.00
76321;BME280;65132;52.088;5.402;2023-10-19T08:31:47;75733.94;;;-140.59;100.00
76321;BME280;65132;52.088;5.402;2023-10-19T08:34:14;75733.94;;;-140.59;100.00
76321;BME280;65132;52.088;5.402;2023-10-19T08:36:41;75731.84;;;-140.59;100.00
76321;BME280;65132;52.088;5.402;2023-10-19T08:39:12;75725.63;;;-140.59;100.00
76321;BME280;65132;52.088;5.402;2023-10-19T08:41:42;75715.22;;;-140.59;100.00
76321;BME280;65132;52.088;5.402;2023-10-19T08:44:08;75711.09;;;-140.59;100.00
76321;BME280;65132;52.088;5.402;2023-10-19T08:46:43;75704.84;;;-140.59;100.00
76321;BME280;65132;52.088;5.402;2023-10-19T08:49:13;75704.84;;;-140.59;100.00
76321;BME280;65132;52.088;5.402;2023-10-19T08:51:46;75700.69;;;-140.59;100.00
76321;BME280;65132;52.088;5.402;2023-10-19T08:54:14;75694.47;;;-140.59;100.00
76321;BME280;65132;52.088;5.402;2023-10-19T08:56:43;75692.38;;;-140.59;100.00
76321;BME280;65132;52.088;5.402;2023-10-19T08:59:10;75686.16;;;-140.59;100.00
76321;BME280;65132;52.088;5.402;2023-10-19T09:01:38;75675.78;;;-140.59;100.00
76321;BME280;65132;52.088;5.402;2023-10-19T09:04:05;75665.41;;;-140.59;100.00
76321;BME280;65132;52.088;5.402;2023-10-19T09:06:35;75640.47;;;-140.59;100.00
76321;BME280;65132;52.088;5.402;2023-10-19T09:09:01;75617.63;;;-140.59;100.00
76321;BME280;65132;52.088;5.402;2023-10-19T09:11:33;75588.56;;;-140.59;100.00
76321;BME280;65132;52.088;5.402;2023-10-19T09:14:04;75555.31;;;-140.59;100.00
76321;BME280;65132;52.088;5.402;2023-10-19T09:16:31;75505.47;;;-140.59;100.00
76321;BME280;65132;52.088;5.402;2023-10-19T09:19:00;75511.72;;;-140.59;100.00
76321;BME280;65132;52.088;5.402;2023-10-19T09:21:26;75513.78;;;-140.59;100.00
76321;BME280;65132;52.088;5.402;2023-10-19T09:23:56;75495.09;;;-140.59;100.00
76321;BME280;65132;52.088;5.402;2023-10-19T09:26:24;75511.72;;;-140.59;100.00
76321;BME280;65132;52.088;5.402;2023-10-19T09:28:53;75503.41;;;-140.59;100.00
76321;BME280;65132;52.088;5.402;2023-10-19T09:31:19;75520.03;;;-140.59;100.00
76321;BME280;65132;52.088;5.402;2023-10-19T09:33:48;75522.09;;;-140.59;100.00
76321;BME280;65132;52.088;5.402;2023-10-19T09:36:15;75505.47;;;-140.59;100.00
76321;BME280;65132;52.088;5.402;2023-10-19T09:38:49;75488.88;;;-140.59;100.00
76321;BME280;65132;52.088;5.402;2023-10-19T09:41:18;75490.94;;;-140.59;100.00
76321;BME280;65132;52.088;5.402;2023-10-19T09:43:49;75486.78;;;-140.59;100.00
76321;BME280;65132;52.088;5.402;2023-10-19T09:46:26;75445.25;;;-140.59;100.00
76321;BME280;65132;52.088;5.402;2023-10-19T09:48:59;75451.50;;;-140.59;100.00
76321;BME280;65132;52.088;5.402;2023-10-19T09:51:26;75337.28;;;-140.59;100.00
76321;BME280;65132;52.088;5.402;2023-10-19T09:53:58;75231.38;;;-140.59;100.00
76321;BME280;65132;52.088;5.402;2023-10-19T09:56:33;75115.09;;;-140.59;99.19
76321;BME280;65132;52.088;5.402;2023-10-19T09:59:11;75115.09;;;-140.59;99.38
76321;BME280;65132;52.088;5.402;2023-10-19T10:04:34;75140.00;;;-140.59;94.95
76321;BME280;65132;52.088;5.402;2023-10-19T10:07:06;75227.22;;;-140.59;100.00
76321;BME280;65132;52.088;5.402;2023-10-19T10:09:40;75283.28;;;-140.59;100.00
76321;BME280;65132;52.088;5.402;2023-10-19T10:12:25;75322.75;;;-140.59;100.00
76321;BME280;65132;52.088;5.402;2023-10-19T10:14:58;75331.03;;;-140.59;100.00
76321;BME280;65132;52.088;5.402;2023-10-19T10:17:33;75353.88;;;-140.59;100.00
76321;BME280;65132;52.088;5.402;2023-10-19T10:25:48;75347.66;;;-140.59;100.00
76321;BME280;65132;52.088;5.402;2023-10-19T10:28:16;75360.13;;;-140.59;100.00
76321;BME280;65132;52.088;5.402;2023-10-19T10:31:11;75349.72;;;-140.59;100.00
76321;BME280;65132;52.088;5.402;2023-10-19T10:33:43;75331.03;;;-140.59;100.00
76321;BME280;65132;52.088;5.402;2023-10-19T10:36:13;75337.28;;;-140.59;100.00
76321;BME280;65132;52.088;5.402;2023-10-19T10:38:40;75328.97;;;-140.59;100.00
76321;BME280;65132;52.088;5.402;2023-10-19T10:41:07;75353.88;;;-140.59;100.00
76321;BME280;65132;52.088;5.402;2023-10-19T10:43:34;75366.34;;;-140.59;100.00
76321;BME280;65132;52.088;5.402;2023-10-19T10:46:13;75376.72;;;-140.59;100.00
76321;BME280;65132;52.088;5.402;2023-10-19T10:48:43;75376.72;;;-140.59;100.00
76321;BME280;65132;52.088;5.402;2023-10-19T10:51:19;75370.50;;;-140.59;100.00
76321;BME280;65132;52.088;5.402;2023-10-19T10:53:49;75358.03;;;-140.59;100.00
76321;BME280;65132;52.088;5.402;2023-10-19T10:56:17;75366.34;;;-140.59;100.00
76321;BME280;65132;52.088;5.402;2023-10-19T10:58:44;75339.34;;;-140.59;100.00
76321;BME280;65132;52.088;5.402;2023-10-19T11:01:14;75333.13;;;-140.59;100.00
76321;BME280;65132;52.088;5.402;2023-10-19T11:03:41;75333.13;;;-140.59;100.00
76321;BME280;65132;52.088;5.402;2023-10-19T11:06:09;75316.50;;;-140.59;100.00
76321;BME280;65132;52.088;5.402;2023-10-19T11:08:36;75285.34;;;-140.59;100.00
76321;BME280;65132;52.088;5.402;2023-10-19T11:11:09;75260.44;;;-140.59;100.00
76321;BME280;65132;52.088;5.402;2023-10-19T11:13:43;75252.13;;;-140.59;100.00
76321;BME280;65132;52.088;5.402;2023-10-19T11:16:21;75245.91;;;-140.59;100.00
76321;BME280;65132;52.088;5.402;2023-10-19T11:18:49;75235.53;;;-140.59;100.00
76321;BME280;65132;52.088;5.402;2023-10-19T11:21:21;75245.91;;;-140.59;100.00
76321;BME280;65132;52.088;5.402;2023-10-19T11:23:54;75233.44;;;-140.59;100.00
76321;BME280;65132;52.088;5.402;2023-10-19T11:26:24;75191.91;;;-140.59;100.00
76321;BME280;65132;52.088;5.402;2023-10-19T11:29:01;75183.59;;;-140.59;100.00
76321;BME280;65132;52.088;5.402;2023-10-19T11:31:27;75169.06;;;-140.59;100.00
76321;BME280;65132;52.088;5.402;2023-10-19T11:34:01;75135.84;;;-140.59;100.00
76321;BME280;65132;52.088;5.402;2023-10-19T11:36:27;75069.41;;;-140.59;97.26
76321;BME280;65132;52.088;5.402;2023-10-19T11:38:57;74986.34;;;-140.59;91.70
76321;BME280;65132;52.088;5.402;2023-10-19T11:41:23;75044.47;;;-140.59;93.54
76321;BME280;65132;52.088;5.402;2023-10-19T11:43:50;74843.06;;;-140.59;84.62
76321;BME280;65132;52.088;5.402;2023-10-19T11:46:22;74832.69;;;-140.59;82.68
76321;BME280;65132;52.088;5.402;2023-10-19T11:48:49;74755.88;;;-140.59;78.83
76321;BME280;65132;52.088;5.402;2023-10-19T11:51:18;74762.09;;;-140.59;78.12
76321;BME280;65132;52.088;5.402;2023-10-19T11:53:44;74913.66;;;-140.59;81.80
76321;BME280;65132;52.088;5.402;2023-10-19T11:56:12;74973.88;;;-140.59;88.74
76321;BME280;65132;52.088;5.402;2023-10-19T11:58:39;74938.59;;;-140.59;88.55
76321;BME280;65132;52.088;5.402;2023-10-19T12:01:12;74928.19;;;-140.59;87.83
76321;BME280;65132;52.088;5.402;2023-10-19T12:03:41;74973.88;;;-140.59;88.98
76321;BME280;65132;52.088;5.402;2023-10-19T12:06:09;75042.41;;;-140.59;92.89
76321;BME280;65132;52.088;5.402;2023-10-19T12:08:37;75090.16;;;-140.59;94.64
76321;BME280;65132;52.088;5.402;2023-10-19T12:11:08;75129.63;;;-140.59;96.80
76321;BME280;65132;52.088;5.402;2023-10-19T12:13:35;75140.00;;;-140.59;97.41
76321;BME280;65132;52.088;5.402;2023-10-19T12:16:02;75154.53;;;-140.59;98.90
76321;BME280;65132;52.088;5.402;2023-10-19T12:18:29;75162.84;;;-140.59;99.93
76321;BME280;65132;52.088;5.402;2023-10-19T12:20:55;75181.53;;;-140.59;98.67
76321;BME280;65132;52.088;5.402;2023-10-19T12:23:22;75204.38;;;-140.59;99.63
76321;BME280;65132;52.088;5.402;2023-10-19T12:25:49;75183.59;;;-140.59;100.00
76321;BME280;65132;52.088;5.402;2023-10-19T12:28:23;75191.91;;;-140.59;100.00
76321;BME280;65132;52.088;5.402;2023-10-19T12:30:50;75191.91;;;-140.59;100.00
76321;BME280;65132;52.088;5.402;2023-10-19T12:33:16;75194.00;;;-140.59;100.00
76321;BME280;65132;52.088;5.402;2023-10-19T12:35:43;75187.75;;;-140.59;100.00
76321;BME280;65132;52.088;5.402;2023-10-19T12:38:14;75196.06;;;-140.59;100.00
76321;BME280;65132;52.088;5.402;2023-10-19T12:40:42;75200.22;;;-140.59;100.00
76321;BME280;65132;52.088;5.402;2023-10-19T12:43:09;75208.53;;;-140.59;100.00
76321;BME280;65132;52.088;5.402;2023-10-19T12:45:36;75210.59;;;-140.59;100.00
76321;BME280;65132;52.088;5.402;2023-10-19T12:48:03;75216.84;;;-140.59;100.00